Bruceville Eddy, Texas
Current Conditions -  °F | °C
As of 1:55 AM on Sunday 26 Oct 2014 (Local Time) from KPWG Reporting Station
Clear Clear  
Wind Chill: 68°   Ceiling: Unl
Heat Index: 68°   Visibility: 10mi
Dew Point: 55°   Wind: 8mph
Humidity: 64%   Direction: 200°SSW
Pressure: 30.06"   Gusts: NA
Location:  31.338°N, 97.2281°W
Report Text: KPWG 260655Z AUTO 20007KT 10SM CLR 20/13 A3006 RMK AO1
Loading
Personal Weather Stations






























Interactive Weather Map
Tropical Storm Tracking
New forecast layout! Learn more

10-Day Weather Forecast

Advertisements
Track Severe Weather on mobile